Terminal Aerodrome Forecast
Issued by NWS Pittsburgh, PA

Current Version | Previous Version | Graphics & Text | Print | Product List | Glossary On
Versions: 1 2 3 4 5 6 7 8 9 10 11 12 13 14 15 16 17 18 19 20 21 22 23 24 25 26 27 28 29 30 31 32
000
FTUS41 KPBZ 181457 AAB
TAFPIT
TAF AMD
KPIT 181457Z 1815/1918 28010G18KT P6SM BKN013
     FM181600 27008KT P6SM OVC008
     FM182100 25007KT P6SM OVC012
     FM191500 VRB05KT P6SM SCT250=

USA.gov is the U.S. government's official web portal to all federal, state and local government web resources and services.